LiveATC.Net - Listen to live air traffic control over the Internet!


ICAO: 61WA  IATA: 61WA   Airport: Burden Field-Rabbit Run Airport
City: Friday Harbor   State/Province: Washington
Country: United States   Continent: North America
KFHR METAR Weather: KFHR 131253Z AUTO 30003KT 10SM CLR 04/04 A3043 RMK AO2 SLP306 T00440039 $
61WA Flight Activity (FlightAware)
61WA Airport Info   (AirNav) (iFlightPlanner)
61WA VFR Sectional Chart   (iFlightPlanner) 
61WA IFR Low Chart   (iFlightPlanner) 
San Juan Air
Feed Status: UP   Listeners: 0
Listen right in your browser - requires Flash (in browser, requires Flash)
Click here to listen with your own player (launches your MP3 player)
San Juan Air Audio Archives
FacilityFrequency
San Juan Air130.650


NOTICE

Unauthorized use prohibited. See LiveATC.net Terms of Service


Find LiveATC Audio Streams


Airport/ARTCC Code

Frequency Search
(e.g., 124.400, 128.75)
Site-wide search
 


Browse LiveATC Feeds
LiveATC Coverage Map
Top 50 LiveATC Feeds
Bad Weather Areas

LiveATC FAQ
Offer a LiveATC Feed
Contact LiveATC.net
Press Inquiries

LiveATC on iPhone
LiveATC on Android

Windows Phone
Windows 8/10

LiveATC Mobile
(Mobile browser)

ATC Audio Archives
Interesting Recordings

LiveATC Forums


Home Page
About LiveATC.net
Make a Donation
Terms of Use
Privacy Policy

Canadian Air Freqs

AIRMETs/SIGMETs

FAA Airport Status
Nat'l Airspace Status
Arrival Demand Charts


Server Software By:
Icecast.org
Liquidsoap